Time;durP1;ratioP1;P1;durP2;ratioP2;P2;SDS_P1;SDS_P2;PMS_P1;PMS_P2;Temp;Humidity;BMP_temperature;BMP_pressure;BME280_temperature;BME280_humidity;BME280_pressure;Samples;Min_cycle;Max_cycle;Signal;HPM_P1;HPM_P2
2023/05/18 00:01:13;;;;;;;6.00;2.93;;;13.10;58.90;;;;;;5073260;28;20452;-57
2023/05/18 00:03:40;;;;;;;4.70;3.03;;;13.10;59.30;;;;;;5073249;28;20543;-57
2023/05/18 00:06:07;;;;;;;8.80;4.10;;;13.10;59.50;;;;;;5072970;28;20998;-57
2023/05/18 00:08:35;;;;;;;6.00;3.47;;;13.00;59.60;;;;;;5072791;28;20902;-57
2023/05/18 00:11:02;;;;;;;6.63;2.97;;;12.90;59.70;;;;;;5073168;28;20786;-57
2023/05/18 00:13:29;;;;;;;6.70;2.87;;;12.90;59.80;;;;;;5073197;28;20449;-57
2023/05/18 00:15:56;;;;;;;8.87;3.10;;;12.90;59.80;;;;;;5073138;28;20464;-57
2023/05/18 00:18:25;;;;;;;10.13;3.00;;;12.80;60.50;;;;;;5073143;28;20441;-57
2023/05/18 00:20:57;;;;;;;4.40;2.60;;;12.80;61.10;;;;;;5073019;28;20453;-57
2023/05/18 00:23:25;;;;;;;6.53;2.60;;;12.80;61.10;;;;;;5073157;28;20433;-57
2023/05/18 00:25:52;;;;;;;6.10;2.60;;;12.70;61.10;;;;;;5073020;28;20464;-57
2023/05/18 00:28:19;;;;;;;7.20;2.43;;;12.70;61.40;;;;;;5076290;28;20472;-57
2023/05/18 00:30:46;;;;;;;7.90;3.03;;;12.70;61.50;;;;;;5077417;28;20457;-57
2023/05/18 00:33:13;;;;;;;6.77;2.70;;;12.60;61.50;;;;;;5077044;28;20453;-57
2023/05/18 00:35:39;;;;;;;4.90;2.90;;;12.60;61.90;;;;;;5076990;28;20461;-57
2023/05/18 00:38:06;;;;;;;7.77;2.80;;;12.60;62.20;;;;;;5076696;28;20950;-57
2023/05/18 00:40:33;;;;;;;8.20;2.70;;;12.50;62.70;;;;;;5077042;28;20464;-57
2023/05/18 00:43:01;;;;;;;8.50;2.70;;;12.50;62.80;;;;;;5076963;28;20448;-57
2023/05/18 00:45:28;;;;;;;9.17;3.13;;;12.40;63.20;;;;;;5076909;28;20464;-57
2023/05/18 00:47:54;;;;;;;7.00;3.17;;;12.40;63.60;;;;;;5076847;28;20491;-57
2023/05/18 00:50:21;;;;;;;6.50;3.23;;;12.30;63.30;;;;;;5076776;28;20444;-57
2023/05/18 00:52:48;;;;;;;2.93;2.40;;;12.30;63.30;;;;;;5076928;28;20514;-57
2023/05/18 00:55:15;;;;;;;4.57;2.40;;;12.20;63.20;;;;;;5077048;28;20860;-57
2023/05/18 00:57:43;;;;;;;7.30;2.37;;;12.10;63.50;;;;;;5076672;28;20448;-57
2023/05/18 01:00:12;;;;;;;3.30;2.47;;;12.00;63.80;;;;;;5076332;28;20952;-57
2023/05/18 01:02:41;;;;;;;2.83;2.10;;;11.90;63.90;;;;;;5076587;28;20452;-57
2023/05/18 01:05:09;;;;;;;3.40;2.07;;;11.90;64.50;;;;;;5076466;28;20542;-57
2023/05/18 01:07:37;;;;;;;3.00;2.37;;;11.80;64.80;;;;;;5076403;28;20565;-57
2023/05/18 01:10:04;;;;;;;8.13;2.53;;;11.70;64.90;;;;;;5076145;28;20463;-57
2023/05/18 01:12:39;;;;;;;2.70;2.30;;;11.70;65.50;;;;;;5076557;28;20447;-57
2023/05/18 01:15:10;;;;;;;3.90;2.83;;;11.70;65.70;;;;;;5076411;28;20475;-57
2023/05/18 01:17:51;;;;;;;4.63;2.57;;;11.60;65.80;;;;;;5075915;28;20486;-57
2023/05/18 01:20:32;;;;;;;5.27;2.60;;;11.60;66.20;;;;;;5075939;28;20918;-57
2023/05/18 01:23:12;;;;;;;6.70;2.40;;;11.50;66.50;;;;;;5076338;28;20436;-57
2023/05/18 01:25:48;;;;;;;7.73;2.70;;;11.50;66.80;;;;;;5076137;28;20558;-57
2023/05/18 01:28:19;;;;;;;4.60;2.20;;;11.40;67.10;;;;;;5076637;28;20468;-57
2023/05/18 01:30:47;;;;;;;6.30;2.77;;;11.40;67.40;;;;;;5077280;28;20440;-57
2023/05/18 01:33:14;;;;;;;8.23;3.37;;;11.30;67.40;;;;;;5076833;28;20831;-57
2023/05/18 01:35:46;;;;;;;5.20;3.10;;;11.30;67.60;;;;;;5076497;28;20464;-57
2023/05/18 01:38:14;;;;;;;4.50;2.53;;;11.20;67.70;;;;;;5075538;28;20464;-56
2023/05/18 01:40:50;;;;;;;5.57;2.80;;;11.20;68.20;;;;;;5075681;28;20472;-56
2023/05/18 01:43:21;;;;;;;5.70;2.47;;;11.20;68.30;;;;;;5075691;28;20919;-56
2023/05/18 01:45:51;;;;;;;4.50;2.90;;;11.20;68.40;;;;;;5075870;28;20465;-56
2023/05/18 01:48:21;;;;;;;5.60;2.77;;;11.10;68.30;;;;;;5075522;28;20900;-57
2023/05/18 01:50:50;;;;;;;5.70;2.80;;;11.10;68.90;;;;;;5075460;28;20840;-57
2023/05/18 01:53:23;;;;;;;5.00;2.50;;;11.20;69.30;;;;;;5075737;28;20449;-57
2023/05/18 01:55:52;;;;;;;5.63;2.60;;;11.10;68.90;;;;;;5075872;28;20465;-57
2023/05/18 01:58:21;;;;;;;3.00;2.70;;;11.10;69.30;;;;;;5075745;28;20471;-57
2023/05/18 02:00:48;;;;;;;6.00;2.60;;;11.00;69.40;;;;;;5075638;28;20451;-57
2023/05/18 02:03:16;;;;;;;5.27;2.50;;;11.00;69.40;;;;;;5075595;28;20452;-57
2023/05/18 02:05:43;;;;;;;4.93;2.30;;;10.90;69.70;;;;;;5075480;28;20464;-57
2023/05/18 02:08:10;;;;;;;3.87;2.70;;;10.80;69.70;;;;;;5075248;28;20480;-57
2023/05/18 02:10:37;;;;;;;6.00;2.67;;;10.80;70.00;;;;;;5075180;28;20950;-57
2023/05/18 02:13:03;;;;;;;8.00;2.57;;;10.70;70.40;;;;;;5075389;28;20452;-57
2023/05/18 02:15:31;;;;;;;4.00;2.57;;;10.70;71.00;;;;;;5075243;28;20468;-57
2023/05/18 02:17:58;;;;;;;3.30;2.70;;;10.70;71.00;;;;;;5075224;28;20448;-57
2023/05/18 02:20:25;;;;;;;7.60;2.83;;;10.70;71.20;;;;;;5075265;28;20953;-57
2023/05/18 02:22:51;;;;;;;3.87;2.30;;;10.60;71.50;;;;;;5075186;28;20457;-57
2023/05/18 02:25:18;;;;;;;6.10;2.80;;;10.60;71.60;;;;;;5075079;28;20464;-57
2023/05/18 02:27:45;;;;;;;4.10;2.33;;;10.60;71.80;;;;;;5074706;28;20947;-57
2023/05/18 02:30:13;;;;;;;3.40;2.80;;;10.60;72.00;;;;;;5075034;28;20444;-57
2023/05/18 02:32:41;;;;;;;5.43;2.60;;;10.60;72.20;;;;;;5075040;28;20449;-57
2023/05/18 02:35:09;;;;;;;6.57;3.20;;;10.50;72.10;;;;;;5074946;28;20487;-57
2023/05/18 02:37:38;;;;;;;9.87;4.87;;;10.50;72.40;;;;;;5075049;28;20455;-57
2023/05/18 02:40:06;;;;;;;6.00;2.87;;;10.50;72.60;;;;;;5074998;28;20458;-57
2023/05/18 02:42:33;;;;;;;4.00;2.37;;;10.50;72.60;;;;;;5074548;28;21011;-56
2023/05/18 02:45:01;;;;;;;7.90;3.10;;;10.40;72.60;;;;;;5074745;28;20471;-57
2023/05/18 02:47:27;;;;;;;7.73;3.23;;;10.50;72.90;;;;;;5074891;28;20451;-57
2023/05/18 02:49:55;;;;;;;3.03;2.73;;;10.50;72.80;;;;;;5074469;28;20480;-57
2023/05/18 02:52:22;;;;;;;5.23;2.60;;;10.40;73.00;;;;;;5074258;28;20946;-57
2023/05/18 02:54:49;;;;;;;6.37;3.20;;;10.50;73.30;;;;;;5074239;28;20985;-57
2023/05/18 02:57:16;;;;;;;3.23;2.73;;;10.40;73.30;;;;;;5074542;28;20445;-57
2023/05/18 02:59:43;;;;;;;6.67;2.97;;;10.40;73.10;;;;;;5074278;28;20441;-57
2023/05/18 03:02:13;;;;;;;7.80;3.03;;;10.40;73.30;;;;;;5074273;28;20487;-57
2023/05/18 03:04:40;;;;;;;3.43;2.60;;;10.40;73.30;;;;;;5074486;28;20473;-57
2023/05/18 03:07:09;;;;;;;9.40;3.10;;;10.30;73.40;;;;;;5074261;28;20850;-57
2023/05/18 03:09:36;;;;;;;6.17;2.67;;;10.30;73.50;;;;;;5073676;28;20484;-57
2023/05/18 03:12:02;;;;;;;5.90;3.10;;;10.30;73.60;;;;;;5073829;28;20946;-57
2023/05/18 03:14:29;;;;;;;6.80;3.63;;;10.30;73.80;;;;;;5073947;28;20884;-57
2023/05/18 03:16:56;;;;;;;6.27;3.80;;;10.30;73.60;;;;;;5074023;28;20506;-57
2023/05/18 03:19:23;;;;;;;6.93;3.27;;;10.30;73.80;;;;;;5073924;28;20444;-57
2023/05/18 03:21:50;;;;;;;3.70;2.67;;;10.30;73.60;;;;;;5073999;28;20449;-57
2023/05/18 03:24:19;;;;;;;4.63;3.00;;;10.30;73.60;;;;;;5073859;28;20456;-57
2023/05/18 03:26:45;;;;;;;5.40;3.30;;;10.30;74.00;;;;;;5073864;28;20449;-57
2023/05/18 03:29:13;;;;;;;10.10;3.70;;;10.30;74.20;;;;;;5073327;28;20479;-57
2023/05/18 03:31:40;;;;;;;5.90;3.20;;;10.30;74.30;;;;;;5073767;28;20514;-57
2023/05/18 03:34:06;;;;;;;6.63;3.40;;;10.20;74.10;;;;;;5073681;28;20495;-57
2023/05/18 03:36:34;;;;;;;6.10;3.30;;;10.20;74.50;;;;;;5073642;28;20451;-57
2023/05/18 03:39:01;;;;;;;9.80;3.40;;;10.20;74.60;;;;;;5073672;28;20449;-57
2023/05/18 03:41:30;;;;;;;7.43;3.03;;;10.20;74.50;;;;;;5073592;28;20445;-57
2023/05/18 03:43:57;;;;;;;8.93;2.97;;;10.20;74.90;;;;;;5073603;28;20533;-57
2023/05/18 03:46:24;;;;;;;10.50;4.00;;;10.20;75.10;;;;;;5073516;28;20814;-57
2023/05/18 03:48:52;;;;;;;7.20;3.77;;;10.20;75.30;;;;;;5073452;28;20476;-57
2023/05/18 03:51:19;;;;;;;8.03;3.20;;;10.20;75.60;;;;;;5073560;28;20619;-57
2023/05/18 03:53:46;;;;;;;7.73;3.60;;;10.20;75.60;;;;;;5073550;28;20452;-57
2023/05/18 03:56:13;;;;;;;6.67;3.90;;;10.10;75.80;;;;;;5073376;28;20499;-57
2023/05/18 03:58:41;;;;;;;4.13;2.90;;;10.10;76.10;;;;;;5073389;28;20451;-57
2023/05/18 04:01:08;;;;;;;5.90;3.23;;;10.10;76.40;;;;;;5073105;28;20476;-57
2023/05/18 04:03:34;;;;;;;5.90;2.97;;;10.10;76.40;;;;;;5073067;28;20444;-57
2023/05/18 04:06:01;;;;;;;6.43;3.10;;;10.20;76.50;;;;;;5073294;28;20472;-57
2023/05/18 04:08:29;;;;;;;8.17;3.33;;;10.20;76.50;;;;;;5072722;28;21033;-57
2023/05/18 04:10:55;;;;;;;7.13;3.77;;;10.20;76.90;;;;;;5073424;28;20429;-57
2023/05/18 04:13:22;;;;;;;5.00;3.00;;;10.20;77.10;;;;;;5073422;28;20456;-57
2023/05/18 04:15:50;;;;;;;4.87;4.00;;;10.20;77.20;;;;;;5073223;28;20468;-57
2023/05/18 04:18:17;;;;;;;5.20;3.30;;;10.30;77.50;;;;;;5072997;28;20865;-57
2023/05/18 04:20:44;;;;;;;7.30;3.70;;;10.30;77.90;;;;;;5073281;28;20453;-57
2023/05/18 04:23:11;;;;;;;4.23;2.90;;;10.30;78.10;;;;;;5072925;28;20946;-57
2023/05/18 04:25:40;;;;;;;7.97;3.60;;;10.30;78.10;;;;;;5073330;28;20838;-57
2023/05/18 04:28:08;;;;;;;3.87;3.27;;;10.40;78.00;;;;;;5072865;28;21010;-57
2023/05/18 04:30:36;;;;;;;4.67;3.83;;;10.40;78.20;;;;;;5072770;28;20998;-57
2023/05/18 04:33:05;;;;;;;7.10;3.90;;;10.50;78.50;;;;;;5074513;28;20476;-57
2023/05/18 04:35:32;;;;;;;6.23;3.40;;;10.50;78.60;;;;;;5074928;28;20512;-57
2023/05/18 04:37:58;;;;;;;4.77;3.43;;;10.50;78.60;;;;;;5075121;28;20444;-57
2023/05/18 04:40:25;;;;;;;7.83;3.67;;;10.50;78.70;;;;;;5074294;28;20543;-57
2023/05/18 04:42:52;;;;;;;8.20;4.20;;;10.60;79.20;;;;;;5072961;28;20460;-57
2023/05/18 04:45:20;;;;;;;5.93;3.80;;;10.60;79.50;;;;;;5072707;28;20978;-57
2023/05/18 04:47:52;;;;;;;10.20;4.37;;;10.60;80.00;;;;;;5073114;28;20452;-57
2023/05/18 04:50:22;;;;;;;9.17;4.03;;;10.70;79.80;;;;;;5072887;28;20555;-57
2023/05/18 04:52:50;;;;;;;8.37;4.60;;;10.80;80.00;;;;;;5072992;28;20433;-57
2023/05/18 04:55:21;;;;;;;6.87;4.10;;;10.80;80.20;;;;;;5072982;28;20468;-57
2023/05/18 04:57:49;;;;;;;4.40;3.67;;;10.80;80.40;;;;;;5073046;28;20969;-57
2023/05/18 05:00:17;;;;;;;9.40;4.70;;;10.90;80.70;;;;;;5073372;28;20491;-57
2023/05/18 05:02:44;;;;;;;6.50;4.53;;;10.90;81.10;;;;;;5072849;28;20486;-57
2023/05/18 05:05:10;;;;;;;9.97;3.90;;;11.00;81.00;;;;;;5072710;28;20472;-57
2023/05/18 05:07:38;;;;;;;8.03;3.93;;;11.00;81.00;;;;;;5072788;28;20519;-57
2023/05/18 05:10:06;;;;;;;8.97;4.30;;;11.10;80.90;;;;;;5072297;28;20555;-57
2023/05/18 05:12:35;;;;;;;10.47;5.67;;;11.10;81.00;;;;;;5072609;28;20995;-57
2023/05/18 05:15:01;;;;;;;11.90;5.37;;;11.10;81.30;;;;;;5076393;28;20471;-57
2023/05/18 05:17:28;;;;;;;5.27;4.13;;;11.20;82.30;;;;;;5076446;28;20449;-57
2023/05/18 05:19:55;;;;;;;7.80;4.60;;;11.30;81.10;;;;;;5076460;28;20449;-57
2023/05/18 05:22:21;;;;;;;11.40;4.70;;;11.30;81.20;;;;;;5076386;28;20452;-57
2023/05/18 05:24:50;;;;;;;7.90;4.37;;;11.30;81.30;;;;;;5076266;28;20521;-57
2023/05/18 05:27:17;;;;;;;6.70;5.20;;;11.40;81.50;;;;;;5075994;28;20448;-57
2023/05/18 05:29:46;;;;;;;10.63;4.90;;;11.40;81.50;;;;;;5076134;28;20486;-57
2023/05/18 05:32:13;;;;;;;5.07;4.27;;;11.50;81.40;;;;;;5076186;28;20467;-57
2023/05/18 05:34:40;;;;;;;8.13;4.50;;;11.50;81.90;;;;;;5076103;28;20476;-57
2023/05/18 05:37:06;;;;;;;10.30;5.53;;;11.60;81.30;;;;;;5076058;28;20459;-56
2023/05/18 05:39:33;;;;;;;8.13;4.80;;;11.70;81.10;;;;;;5076047;28;20459;-57
2023/05/18 05:42:01;;;;;;;9.53;5.30;;;11.70;81.20;;;;;;5075678;28;20969;-57
2023/05/18 05:44:28;;;;;;;8.30;4.43;;;11.70;80.70;;;;;;5075907;28;20464;-57
2023/05/18 05:46:54;;;;;;;7.10;4.90;;;11.80;80.60;;;;;;5075717;28;20456;-57
2023/05/18 05:49:21;;;;;;;11.17;5.50;;;11.80;80.60;;;;;;5075819;28;20840;-57
2023/05/18 05:51:48;;;;;;;13.33;5.40;;;11.90;80.90;;;;;;5075822;28;20453;-57
2023/05/18 05:54:15;;;;;;;12.27;5.73;;;11.90;80.40;;;;;;5075382;28;20958;-57
2023/05/18 05:56:42;;;;;;;13.43;5.13;;;12.00;80.60;;;;;;5075953;28;20452;-57
2023/05/18 05:59:10;;;;;;;6.63;5.43;;;12.10;80.50;;;;;;5075660;28;20436;-57
2023/05/18 06:01:37;;;;;;;8.90;5.10;;;12.10;80.30;;;;;;5075360;28;20939;-57
2023/05/18 06:04:05;;;;;;;15.40;6.73;;;12.20;80.00;;;;;;5075644;28;20452;-57
2023/05/18 06:06:32;;;;;;;11.80;5.67;;;12.20;79.70;;;;;;5075529;28;20473;-57
2023/05/18 06:08:58;;;;;;;8.03;7.07;;;12.30;79.50;;;;;;5075088;28;20464;-57
2023/05/18 06:11:25;;;;;;;6.27;5.67;;;12.40;79.50;;;;;;5075538;28;20519;-57
2023/05/18 06:13:52;;;;;;;12.17;6.57;;;12.50;79.30;;;;;;5075189;28;20922;-57
2023/05/18 06:16:20;;;;;;;12.33;6.53;;;12.60;78.90;;;;;;5075359;28;20825;-57
2023/05/18 06:18:47;;;;;;;14.00;5.53;;;12.70;79.00;;;;;;5075349;28;20456;-57
2023/05/18 06:21:14;;;;;;;16.77;6.33;;;12.70;78.80;;;;;;5075234;28;20807;-57
2023/05/18 06:23:41;;;;;;;8.60;5.17;;;12.80;78.30;;;;;;5075209;28;20506;-57
2023/05/18 06:26:08;;;;;;;13.30;6.37;;;12.90;77.80;;;;;;5074311;28;20464;-57
2023/05/18 06:28:34;;;;;;;12.80;5.67;;;13.00;77.40;;;;;;5074758;28;20938;-57
2023/05/18 06:31:01;;;;;;;13.13;5.73;;;13.10;77.30;;;;;;5074942;28;20550;-57
2023/05/18 06:33:29;;;;;;;8.60;5.80;;;13.20;77.30;;;;;;5075062;28;20440;-57
2023/05/18 06:35:56;;;;;;;8.37;5.37;;;13.30;76.50;;;;;;5074914;28;20469;-57
2023/05/18 06:38:22;;;;;;;11.20;5.63;;;13.40;75.60;;;;;;5074961;28;20444;-57
2023/05/18 06:40:49;;;;;;;9.33;5.63;;;13.50;75.60;;;;;;5074490;28;20843;-57
2023/05/18 06:43:16;;;;;;;10.00;5.33;;;13.60;75.10;;;;;;5074889;28;20883;-57
2023/05/18 06:45:43;;;;;;;9.53;5.20;;;13.70;74.50;;;;;;5074708;28;20496;-57
2023/05/18 06:48:09;;;;;;;10.73;6.30;;;13.80;73.40;;;;;;5074737;28;20502;-57
2023/05/18 06:50:37;;;;;;;8.90;5.70;;;13.90;73.50;;;;;;5074284;28;20484;-57
2023/05/18 06:53:05;;;;;;;9.13;4.93;;;14.10;74.10;;;;;;5074605;28;20801;-57
2023/05/18 06:55:31;;;;;;;10.03;5.90;;;14.20;73.60;;;;;;5074513;28;20476;-57
2023/05/18 06:57:58;;;;;;;9.33;5.37;;;14.40;72.80;;;;;;5074569;28;20453;-57
2023/05/18 07:00:25;;;;;;;8.70;5.00;;;14.50;71.70;;;;;;5074495;28;20498;-57
2023/05/18 07:02:52;;;;;;;6.73;4.90;;;14.60;70.90;;;;;;5074418;28;20456;-57
2023/05/18 07:05:18;;;;;;;14.03;4.90;;;14.80;70.80;;;;;;5074344;28;20518;-57
2023/05/18 07:07:46;;;;;;;9.40;5.00;;;14.90;70.80;;;;;;5074185;28;20455;-57
2023/05/18 07:10:13;;;;;;;8.17;4.77;;;15.10;70.20;;;;;;5074200;28;20503;-57
2023/05/18 07:12:40;;;;;;;10.80;4.47;;;15.30;70.10;;;;;;5073902;28;20950;-57
2023/05/18 07:15:07;;;;;;;6.80;3.83;;;15.40;68.40;;;;;;5073852;28;20871;-57
2023/05/18 07:17:34;;;;;;;10.60;4.57;;;15.60;67.50;;;;;;5074140;28;20447;-57
2023/05/18 07:20:01;;;;;;;5.73;4.40;;;15.80;68.20;;;;;;5073690;28;21007;-57
2023/05/18 07:22:28;;;;;;;7.80;4.13;;;16.00;66.60;;;;;;5073653;28;20849;-57
2023/05/18 07:24:57;;;;;;;8.17;4.23;;;16.10;65.40;;;;;;5073976;28;20468;-56
2023/05/18 07:27:24;;;;;;;12.20;4.90;;;16.30;63.90;;;;;;5073808;28;20487;-57
2023/05/18 07:29:50;;;;;;;8.50;4.90;;;16.50;63.20;;;;;;5073950;28;20480;-57
2023/05/18 07:32:17;;;;;;;6.00;3.00;;;16.60;61.50;;;;;;5073943;28;20459;-57
2023/05/18 07:34:45;;;;;;;7.30;3.43;;;16.80;60.40;;;;;;5073788;28;20471;-57
2023/05/18 07:37:12;;;;;;;7.90;3.63;;;16.90;60.30;;;;;;5072633;28;21017;-57
2023/05/18 07:39:39;;;;;;;3.83;3.37;;;17.10;59.50;;;;;;5074217;28;20449;-57
2023/05/18 07:42:08;;;;;;;10.43;3.57;;;17.20;58.80;;;;;;5073700;28;20449;-57
2023/05/18 07:44:35;;;;;;;9.00;4.10;;;17.50;58.70;;;;;;5073598;28;20495;-57
2023/05/18 07:47:02;;;;;;;7.80;4.07;;;17.70;58.00;;;;;;5073608;28;20445;-57
2023/05/18 07:49:29;;;;;;;10.33;4.10;;;17.90;57.40;;;;;;5073500;28;20480;-57
2023/05/18 07:51:56;;;;;;;7.80;4.00;;;18.10;56.70;;;;;;5073524;28;20850;-57
2023/05/18 07:54:22;;;;;;;4.57;3.00;;;18.30;56.00;;;;;;5073486;28;20458;-58
2023/05/18 07:56:49;;;;;;;5.97;2.97;;;18.50;55.50;;;;;;5073300;28;20447;-58
2023/05/18 07:59:17;;;;;;;10.97;4.33;;;18.70;55.30;;;;;;5073562;28;20856;-58
2023/05/18 08:01:44;;;;;;;5.00;3.20;;;18.80;53.90;;;;;;5073515;28;20790;-58
2023/05/18 08:04:11;;;;;;;7.13;3.30;;;19.00;53.50;;;;;;5073360;28;20547;-58
2023/05/18 08:06:37;;;;;;;7.00;3.10;;;19.10;52.90;;;;;;5073446;28;20868;-58
2023/05/18 08:09:05;;;;;;;5.93;3.20;;;19.20;52.70;;;;;;5073160;28;20476;-58
2023/05/18 08:11:32;;;;;;;7.20;3.73;;;19.30;52.00;;;;;;5073255;28;20496;-58
2023/05/18 08:13:58;;;;;;;4.73;2.73;;;19.40;51.90;;;;;;5073428;28;20440;-58
2023/05/18 08:16:26;;;;;;;6.23;3.77;;;19.50;51.80;;;;;;5072972;28;20464;-58
2023/05/18 08:18:53;;;;;;;6.53;2.83;;;19.60;51.40;;;;;;5073345;28;20440;-58
2023/05/18 08:21:20;;;;;;;5.57;3.20;;;19.80;51.10;;;;;;5073282;28;20451;-58
2023/05/18 08:23:47;;;;;;;12.07;3.67;;;20.00;50.60;;;;;;5072970;28;20451;-57
2023/05/18 08:26:13;;;;;;;10.70;4.40;;;20.10;49.90;;;;;;5073278;28;20465;-58
2023/05/18 08:28:40;;;;;;;7.10;3.77;;;20.20;49.30;;;;;;5073280;28;20460;-58
2023/05/18 08:31:07;;;;;;;5.40;3.50;;;20.40;49.00;;;;;;5073179;28;20563;-58
2023/05/18 08:33:35;;;;;;;6.80;3.73;;;20.50;48.80;;;;;;5072923;28;20938;-58
2023/05/18 08:36:02;;;;;;;5.20;2.67;;;20.80;48.40;;;;;;5073084;28;20507;-58
2023/05/18 08:38:28;;;;;;;6.23;2.50;;;21.00;47.40;;;;;;5073153;28;20449;-58
2023/05/18 08:41:02;;;;;;;4.40;2.63;;;21.30;46.20;;;;;;5073072;28;20437;-58
2023/05/18 08:43:32;;;;;;;8.50;3.07;;;21.50;45.70;;;;;;5072854;28;20906;-58
2023/05/18 08:46:05;;;;;;;7.03;2.80;;;21.80;45.30;;;;;;5072804;28;20500;-58
2023/05/18 08:48:33;;;;;;;5.37;2.63;;;22.10;44.80;;;;;;5075358;28;20456;-58
2023/05/18 08:51:03;;;;;;;10.40;3.07;;;22.30;44.00;;;;;;5077262;28;20560;-58
2023/05/18 08:53:32;;;;;;;7.30;2.93;;;22.40;43.30;;;;;;5076935;28;20456;-57
2023/05/18 08:56:00;;;;;;;4.17;2.83;;;22.50;41.30;;;;;;5073741;28;20479;-56
2023/05/18 08:58:34;;;;;;;6.73;2.97;;;22.70;42.30;;;;;;5056973;28;20963;-57
2023/05/18 09:01:01;;;;;;;5.77;3.00;;;22.80;42.10;;;;;;5064422;28;20942;-56
2023/05/18 09:03:29;;;;;;;4.87;2.13;;;23.00;41.10;;;;;;5070503;28;20593;-56
2023/05/18 09:05:59;;;;;;;6.27;2.90;;;23.10;40.50;;;;;;5063174;28;20472;-56
2023/05/18 09:08:28;;;;;;;5.53;2.90;;;23.30;40.20;;;;;;5056368;28;20472;-57
2023/05/18 09:10:57;;;;;;;7.27;2.73;;;23.40;39.60;;;;;;5057391;28;20489;-57
2023/05/18 09:13:25;;;;;;;8.70;2.70;;;23.60;39.40;;;;;;5076475;28;20460;-57
2023/05/18 09:15:52;;;;;;;5.37;2.47;;;23.60;39.00;;;;;;5076060;28;20469;-57
2023/05/18 09:18:19;;;;;;;7.50;2.93;;;23.70;38.70;;;;;;5071434;28;21053;-56
2023/05/18 09:20:46;;;;;;;5.50;2.53;;;23.70;38.90;;;;;;5060294;28;20441;-56
2023/05/18 09:23:13;;;;;;;12.00;3.40;;;23.70;38.50;;;;;;5061632;28;20440;-57
2023/05/18 09:25:44;;;;;;;9.90;3.40;;;23.70;38.40;;;;;;5076216;28;20480;-56
2023/05/18 09:28:12;;;;;;;6.47;2.73;;;23.80;38.30;;;;;;5076208;28;20476;-57
2023/05/18 09:30:42;;;;;;;6.23;3.00;;;24.00;38.40;;;;;;5067719;28;20900;-57
2023/05/18 09:33:17;;;;;;;7.37;3.17;;;24.20;38.30;;;;;;5056113;28;20445;-57
2023/05/18 09:35:45;;;;;;;7.37;2.97;;;24.30;36.70;;;;;;5056019;28;20472;-57
2023/05/18 09:38:14;;;;;;;6.27;2.90;;;24.40;37.00;;;;;;5056041;28;20485;-57
2023/05/18 09:40:45;;;;;;;6.17;2.73;;;24.70;36.40;;;;;;5055945;28;20537;-57
2023/05/18 09:43:12;;;;;;;7.57;2.80;;;24.90;36.20;;;;;;5055983;28;20426;-57
2023/05/18 09:45:43;;;;;;;7.23;2.97;;;25.10;36.00;;;;;;5067888;28;20475;-57
2023/05/18 09:48:10;;;;;;;7.80;2.90;;;25.40;35.30;;;;;;5070558;28;20448;-57
2023/05/18 09:50:37;;;;;;;5.40;2.50;;;25.70;35.10;;;;;;5056878;28;20520;-57
2023/05/18 09:53:07;;;;;;;13.70;3.00;;;26.00;34.00;;;;;;5055699;28;20460;-57
2023/05/18 09:55:37;;;;;;;4.83;2.90;;;26.40;33.70;;;;;;5072609;28;20884;-57
2023/05/18 09:58:07;;;;;;;6.83;2.70;;;26.60;32.90;;;;;;5075754;28;20482;-57
2023/05/18 10:00:38;;;;;;;6.40;3.00;;;26.90;32.60;;;;;;5063536;28;20523;-57
2023/05/18 10:03:15;;;;;;;5.03;2.80;;;27.20;32.20;;;;;;5073475;28;20481;-57
2023/05/18 10:05:42;;;;;;;7.90;3.20;;;27.50;31.30;;;;;;5075544;28;20478;-57
2023/05/18 10:08:11;;;;;;;10.97;2.80;;;27.90;31.10;;;;;;5075383;28;20452;-57
2023/05/18 10:10:39;;;;;;;9.23;3.47;;;28.20;30.60;;;;;;5075335;28;20483;-58
2023/05/18 10:13:07;;;;;;;4.60;2.77;;;28.40;29.40;;;;;;5075178;28;20823;-58
2023/05/18 10:15:36;;;;;;;6.40;2.80;;;28.60;29.40;;;;;;5075419;28;20469;-58
2023/05/18 10:18:07;;;;;;;7.00;2.70;;;28.90;29.50;;;;;;5074924;28;20543;-57
2023/05/18 10:20:34;;;;;;;5.03;2.50;;;29.20;28.90;;;;;;5073655;28;20848;-56
2023/05/18 10:23:05;;;;;;;6.10;2.90;;;29.50;28.30;;;;;;5075279;28;20456;-57
2023/05/18 10:25:33;;;;;;;7.07;3.40;;;29.80;27.80;;;;;;5074983;28;20503;-57
2023/05/18 10:28:06;;;;;;;6.33;3.03;;;30.30;28.00;;;;;;5075389;28;20455;-58
2023/05/18 10:30:34;;;;;;;4.47;2.90;;;30.70;27.80;;;;;;5075095;28;20472;-58
2023/05/18 10:33:03;;;;;;;5.67;3.00;;;30.70;26.50;;;;;;5075137;28;20475;-57
2023/05/18 10:35:31;;;;;;;5.60;3.27;;;30.50;25.70;;;;;;5074919;28;20471;-58
2023/05/18 10:37:59;;;;;;;9.93;3.90;;;30.60;26.30;;;;;;5074994;28;20447;-57
2023/05/18 10:40:28;;;;;;;5.53;3.30;;;30.80;26.60;;;;;;5075003;28;20455;-58
2023/05/18 10:42:57;;;;;;;6.30;2.90;;;31.10;26.40;;;;;;5074927;28;20857;-58
2023/05/18 10:45:24;;;;;;;4.67;3.00;;;31.50;26.00;;;;;;5074516;28;20468;-57
2023/05/18 10:47:53;;;;;;;10.03;3.67;;;32.20;25.50;;;;;;5074281;28;20455;-57
2023/05/18 10:50:22;;;;;;;6.20;3.60;;;32.70;24.40;;;;;;5074506;28;20466;-57
2023/05/18 10:52:50;;;;;;;7.60;3.23;;;33.20;23.80;;;;;;5074433;28;20848;-58
2023/05/18 10:55:17;;;;;;;8.13;3.67;;;33.50;22.80;;;;;;5074690;28;20464;-58
2023/05/18 10:57:47;;;;;;;6.73;3.17;;;33.80;22.60;;;;;;5074629;28;20822;-58
2023/05/18 11:00:14;;;;;;;6.23;3.30;;;33.60;22.50;;;;;;5074655;28;20794;-58
2023/05/18 11:02:42;;;;;;;7.20;3.53;;;33.30;22.90;;;;;;5074564;28;20455;-58
2023/05/18 11:05:12;;;;;;;6.53;3.37;;;32.90;23.10;;;;;;5074092;28;20982;-58
2023/05/18 11:07:38;;;;;;;7.60;3.50;;;32.80;23.80;;;;;;5074463;28;20464;-58
2023/05/18 11:10:09;;;;;;;12.30;3.80;;;33.00;24.10;;;;;;5073974;28;20467;-58
2023/05/18 11:12:38;;;;;;;10.57;4.30;;;33.60;22.90;;;;;;5074148;28;20467;-58
2023/05/18 11:15:05;;;;;;;7.00;3.50;;;34.20;22.50;;;;;;5073955;28;21051;-58
2023/05/18 11:17:33;;;;;;;5.80;3.40;;;34.80;22.00;;;;;;5074257;28;20451;-58
2023/05/18 11:20:15;;;;;;;6.33;3.30;;;35.30;21.20;;;;;;5074189;28;20440;-58
2023/05/18 11:22:45;;;;;;;6.83;3.60;;;35.80;20.80;;;;;;5074227;28;20182;-58
2023/05/18 11:25:36;;;;;;;5.63;3.37;;;36.20;19.10;;;;;;5073718;28;20645;-58
2023/05/18 11:28:05;;;;;;;4.00;2.70;;;36.60;19.50;;;;;;5074673;28;20243;-58
2023/05/18 11:30:49;;;;;;;5.60;3.13;;;36.90;20.10;;;;;;5073955;28;20589;-57
2023/05/18 11:33:21;;;;;;;5.40;2.88;;;37.40;18.70;;;;;;5074515;28;20260;-57
2023/05/18 11:36:10;;;;;;;5.03;3.45;;;37.70;18.30;;;;;;5073882;28;20225;-57
2023/05/18 11:38:53;;;;;;;5.65;3.17;;;38.20;19.00;;;;;;5073909;28;20563;-57
2023/05/18 11:41:38;;;;;;;5.40;3.67;;;38.50;18.70;;;;;;5073927;28;20178;-57
2023/05/18 11:44:19;;;;;;;6.20;2.90;;;38.80;17.90;;;;;;5074359;28;20196;-57
2023/05/18 11:46:54;;;;;;;5.28;2.95;;;39.20;18.10;;;;;;5073812;28;20570;-57
2023/05/18 11:49:24;;;;;;;6.47;3.13;;;39.40;17.30;;;;;;5073682;28;20244;-57
2023/05/18 11:52:03;;;;;;;5.18;2.83;;;39.60;17.20;;;;;;5073274;28;20730;-57
2023/05/18 11:54:35;;;;;;;6.03;3.10;;;39.90;17.20;;;;;;5073649;28;20218;-57
2023/05/18 11:57:02;;;;;;;6.90;4.00;;;40.00;17.00;;;;;;5073618;28;20612;-57
2023/05/18 11:59:33;;;;;;;8.82;3.40;;;40.10;16.30;;;;;;5073503;28;20213;-57
2023/05/18 12:02:02;;;;;;;8.13;2.95;;;40.20;17.10;;;;;;5073530;28;20205;-57
2023/05/18 12:04:30;;;;;;;4.60;2.97;;;40.50;16.80;;;;;;5073401;28;20582;-56
2023/05/18 12:06:59;;;;;;;7.03;3.17;;;40.70;16.50;;;;;;5073474;28;20205;-56
2023/05/18 12:09:26;;;;;;;7.93;3.88;;;40.90;16.50;;;;;;5072981;28;20683;-57
2023/05/18 12:11:55;;;;;;;4.97;2.60;;;40.80;14.60;;;;;;5073048;28;20638;-57
2023/05/18 12:14:22;;;;;;;3.92;3.20;;;40.20;15.80;;;;;;5073383;28;20251;-57
2023/05/18 12:16:49;;;;;;;4.38;3.10;;;39.80;16.80;;;;;;5073049;28;20689;-57
2023/05/18 12:19:18;;;;;;;4.55;3.10;;;39.20;17.20;;;;;;5073045;28;20227;-57
2023/05/18 12:21:45;;;;;;;6.28;3.25;;;39.00;17.50;;;;;;5072969;28;20687;-57
2023/05/18 12:24:14;;;;;;;4.00;2.80;;;39.30;17.80;;;;;;5072701;28;20683;-57
2023/05/18 12:26:41;;;;;;;6.80;3.13;;;39.70;17.60;;;;;;5073289;28;20279;-57
2023/05/18 12:29:09;;;;;;;7.68;3.97;;;40.10;16.90;;;;;;5073193;28;20237;-57
2023/05/18 12:31:39;;;;;;;5.07;2.83;;;40.60;16.20;;;;;;5073128;28;20253;-57
2023/05/18 12:34:08;;;;;;;6.43;2.92;;;40.90;16.00;;;;;;5073308;28;20204;-57
2023/05/18 12:36:42;;;;;;;4.15;2.78;;;41.20;16.00;;;;;;5073169;28;20201;-57
2023/05/18 12:39:08;;;;;;;7.60;3.25;;;41.00;15.60;;;;;;5072884;28;20558;-57
2023/05/18 12:41:36;;;;;;;6.15;3.00;;;40.90;16.00;;;;;;5073182;28;20205;-57
2023/05/18 12:44:03;;;;;;;5.35;3.00;;;41.00;16.10;;;;;;5073130;28;20205;-57
2023/05/18 12:46:30;;;;;;;4.70;2.75;;;41.40;16.00;;;;;;5073008;28;20221;-57
2023/05/18 12:49:00;;;;;;;4.50;2.47;;;41.80;15.50;;;;;;5073121;28;20206;-57
2023/05/18 12:51:32;;;;;;;7.28;3.17;;;42.20;15.10;;;;;;5072900;28;20232;-57